East Providence, RI (02914)

10:12 PM EDT on September 03, 2015 (GMT -0400)
Seekonk River | | Change Station
CLOSE
Current Station
Personal Weather Station
Location: Providence, RI
Elevation: 0 ft
Nearby Weather Stations

Elev 0 ft 41.83 °N, 71.38 °W | Updated 1 minute ago

Mostly Cloudy
Mostly Cloudy
77.7 °F
Feels Like 80 °F
N
0.0
Wind Variable Wind from SE
Gusts 0.0 mph

Today
High -- | Low -- °F
--% Chance of Precip.
Yesterday
High -- | Low -- °F
Precip. -- in
6:13 AM 7:15 PM
Waning Gibbous, 64% visible
Pressure 29.90 in
Visibility 5.0 miles
Clouds Scattered Clouds 6000 ft
Mostly Cloudy 20000 ft
Overcast 23000 ft
Heat Index 80 °F
Dew Point 71 °F
Humidity 81%
Rainfall 0.00 in
Snow Depth Not available.
UV 0 out of 12
Pollen 7.90 out of 12
Air Quality Not available.
Flu Activity Not available.
METAR KPVD 040151Z 00000KT 5SM BR SCT060 BKN200 OVC230 24/22 A2990 RMK AO2 SLP124 T02440222
Pressure 29.90 in
Visibility 5.0 miles
Clouds Scattered Clouds 6000 ft
Mostly Cloudy 20000 ft
Overcast 23000 ft
Heat Index 80 °F
Dew Point 71 °F
Humidity 81%
Rainfall 0.00 in
Snow Depth Not available.
UV 0 out of 12
Pollen 7.90 out of 12
Air Quality Not available.
Flu Activity Not available.
METAR KPVD 040151Z 00000KT 5SM BR SCT060 BKN200 OVC230 24/22 A2990 RMK AO2 SLP124 T02440222

10-Day Weather Forecast

×

Almanac

Astronomy

Sep. 03, 2015 Rise Set
Actual Time
Civil Twilight
Nautical Twilight
Astronomical Twilight
Moon
Length of Visible Light
Length of Day
Tomorrow will be .
, % of the Moon is Illuminated

Today's Extremes

State Highs State Lows

Community

WunderPhotos

Upload Photos

1,852,096 photos uploaded!

WunderBlogs® & News

Nearby

Air Quality

  Air Quality AQ Index Pollutant
Not available.

Snow Depth

Station Depth Elevation

Earthquake Activity

City Distance Mag. Time & Date
Minimum magnitude displayed is 2.5.

Coastal Water Temperatures

Place Temperature

Stations

Nearby Weather Stations

Station Location Temp. Windchill Dew Point Humidity Wind Precip. Elev Updated Type